createdAt,value
2018-01-23T00:00:15.256Z,7.80
2018-01-23T00:02:45.230Z,7.87
2018-01-23T00:05:16.935Z,7.77
2018-01-23T00:07:47.231Z,7.75
2018-01-23T00:10:25.571Z,7.58
2018-01-23T00:12:55.402Z,7.72
2018-01-23T00:15:29.473Z,7.64
2018-01-23T00:17:59.770Z,7.65
2018-01-23T00:20:29.304Z,7.59
2018-01-23T00:22:59.138Z,7.54
2018-01-23T00:25:29.608Z,7.52
2018-01-23T00:27:59.585Z,7.58
2018-01-23T00:30:29.384Z,7.61
2018-01-23T00:32:58.933Z,7.54
2018-01-23T00:35:29.036Z,7.67
2018-01-23T00:37:59.032Z,7.66
2018-01-23T00:40:29.087Z,7.66
2018-01-23T00:42:59.285Z,7.74
2018-01-23T00:45:29.249Z,7.74
2018-01-23T00:47:58.919Z,7.74
2018-01-23T00:50:28.943Z,7.67
2018-01-23T00:52:59.108Z,7.74
2018-01-23T00:55:28.404Z,7.63
2018-01-23T00:57:58.111Z,7.63
2018-01-23T01:00:28.039Z,7.68
2018-01-23T01:02:57.822Z,7.69
2018-01-23T01:05:33.654Z,7.73
2018-01-23T01:08:03.471Z,7.66
2018-01-23T01:10:33.602Z,7.62
2018-01-23T01:13:03.720Z,7.67
2018-01-23T01:15:33.667Z,7.63
2018-01-23T01:18:02.909Z,7.60
2018-01-23T01:20:31.372Z,7.63
2018-01-23T01:22:59.653Z,7.65
2018-01-23T01:25:27.983Z,7.57
2018-01-23T01:27:57.176Z,7.67
2018-01-23T01:30:26.051Z,7.70
2018-01-23T01:32:54.368Z,7.64
2018-01-23T01:35:22.912Z,7.71
2018-01-23T01:37:51.633Z,7.72
2018-01-23T01:40:20.668Z,7.72
2018-01-23T01:42:49.286Z,7.73
2018-01-23T01:45:17.557Z,7.66
2018-01-23T01:47:45.932Z,7.66
2018-01-23T01:50:14.367Z,7.71
2018-01-23T01:52:42.677Z,7.73
2018-01-23T01:55:14.168Z,7.79
2018-01-23T01:57:42.473Z,7.76
2018-01-23T02:00:17.685Z,7.71
2018-01-23T02:02:46.336Z,7.73
2018-01-23T02:05:14.604Z,7.71
2018-01-23T02:07:43.000Z,7.74
2018-01-23T02:10:14.030Z,7.75
2018-01-23T02:12:42.334Z,7.70
2018-01-23T02:15:13.880Z,7.72
2018-01-23T02:17:42.171Z,7.77
2018-01-23T02:20:15.075Z,7.72
2018-01-23T02:22:43.596Z,7.68
2018-01-23T02:25:15.768Z,7.72
2018-01-23T02:27:44.362Z,7.70
2018-01-23T02:30:14.083Z,7.72
2018-01-23T02:32:42.364Z,7.62
2018-01-23T02:35:14.088Z,7.67
2018-01-23T02:37:42.517Z,7.69
2018-01-23T02:40:17.573Z,7.70
2018-01-23T02:42:45.885Z,7.65
2018-01-23T02:45:14.284Z,7.63
2018-01-23T02:47:42.564Z,7.57
2018-01-23T02:50:16.537Z,7.63
2018-01-23T02:52:44.830Z,7.61
2018-01-23T02:55:14.477Z,7.65
2018-01-23T02:57:42.774Z,7.61
2018-01-23T03:00:14.822Z,7.64
2018-01-23T03:02:43.122Z,7.67
2018-01-23T03:05:15.265Z,7.63
2018-01-23T03:07:43.788Z,7.60
2018-01-23T03:10:15.806Z,7.60
2018-01-23T03:12:44.086Z,7.62
2018-01-23T03:15:14.155Z,7.58
2018-01-23T03:17:42.830Z,7.53
2018-01-23T03:20:14.058Z,7.59
2018-01-23T03:22:42.342Z,7.54
2018-01-23T03:25:16.155Z,7.54
2018-01-23T03:27:44.511Z,7.54
2018-01-23T03:30:14.525Z,7.51
2018-01-23T03:32:43.349Z,7.51
2018-01-23T03:35:15.050Z,7.51
2018-01-23T03:37:43.337Z,7.57
2018-01-23T03:40:14.540Z,7.52
2018-01-23T03:42:42.997Z,7.52
2018-01-23T03:45:14.645Z,7.52
2018-01-23T03:47:42.937Z,7.56
2018-01-23T03:50:14.967Z,7.55
2018-01-23T03:52:43.262Z,7.48
2018-01-23T03:55:14.283Z,7.48
2018-01-23T03:57:42.760Z,7.53
2018-01-23T04:00:15.371Z,7.53
2018-01-23T04:02:43.753Z,7.56
2018-01-23T04:05:15.572Z,7.56
2018-01-23T04:07:43.866Z,7.64
2018-01-23T04:10:15.276Z,7.67
2018-01-23T04:12:43.720Z,7.60
2018-01-23T04:15:15.467Z,7.64
2018-01-23T04:17:43.880Z,7.62
2018-01-23T04:20:15.351Z,7.60
2018-01-23T04:22:44.091Z,7.67
2018-01-23T04:25:14.008Z,7.68
2018-01-23T04:27:43.245Z,7.69
2018-01-23T04:30:14.588Z,7.59
2018-01-23T04:32:42.864Z,7.65
2018-01-23T04:35:14.086Z,7.65
2018-01-23T04:37:42.363Z,7.64
2018-01-23T04:40:13.890Z,7.65
2018-01-23T04:42:42.172Z,7.69
2018-01-23T04:45:13.508Z,7.66
2018-01-23T04:47:41.915Z,7.71
2018-01-23T04:50:15.531Z,7.66
2018-01-23T04:52:43.829Z,7.62
2018-01-23T04:55:15.468Z,7.60
2018-01-23T04:57:43.739Z,7.74
2018-01-23T05:00:16.590Z,7.72
2018-01-23T05:02:44.980Z,7.67
2018-01-23T05:05:14.364Z,7.68
2018-01-23T05:07:42.656Z,7.70
2018-01-23T05:10:14.772Z,7.69
2018-01-23T05:12:43.078Z,7.69
2018-01-23T05:15:15.221Z,7.76
2018-01-23T05:17:43.518Z,7.84
2018-01-23T05:20:15.553Z,7.81
2018-01-23T05:22:43.862Z,7.77
2018-01-23T05:25:15.896Z,7.76
2018-01-23T05:27:44.185Z,7.74
2018-01-23T05:30:15.527Z,7.74
2018-01-23T05:32:43.808Z,7.82
2018-01-23T05:35:15.967Z,7.78
2018-01-23T05:37:44.269Z,7.83
2018-01-23T05:40:14.150Z,7.82
2018-01-23T05:42:42.648Z,7.85
2018-01-23T05:45:14.470Z,7.81
2018-01-23T05:47:42.886Z,7.77
2018-01-23T05:50:14.468Z,7.74
2018-01-23T05:52:42.783Z,7.70
2018-01-23T05:55:14.973Z,7.67
2018-01-23T05:57:43.248Z,7.61
2018-01-23T06:00:14.988Z,7.68
2018-01-23T06:02:43.248Z,7.77
2018-01-23T06:05:15.372Z,7.68
2018-01-23T06:07:43.653Z,7.78
2018-01-23T06:10:15.031Z,7.71
2018-01-23T06:12:43.299Z,7.70
2018-01-23T06:15:14.096Z,7.73
2018-01-23T06:17:42.360Z,7.72
2018-01-23T06:20:13.896Z,7.79
2018-01-23T06:22:42.164Z,7.77
2018-01-23T06:25:17.352Z,7.72
2018-01-23T06:27:46.143Z,7.69
2018-01-23T06:30:14.412Z,7.73
2018-01-23T06:32:43.456Z,7.73
2018-01-23T06:35:15.752Z,7.75
2018-01-23T06:37:44.029Z,7.79
2018-01-23T06:40:14.084Z,7.78
2018-01-23T06:42:42.394Z,7.65
2018-01-23T06:45:13.812Z,7.65
2018-01-23T06:47:42.131Z,7.70
2018-01-23T06:50:13.879Z,7.68
2018-01-23T06:52:42.232Z,7.66
2018-01-23T06:55:13.883Z,7.68
2018-01-23T06:57:42.184Z,7.72
2018-01-23T07:00:17.327Z,7.67
2018-01-23T07:02:45.765Z,7.66
2018-01-23T07:05:14.112Z,7.75
2018-01-23T07:07:42.417Z,7.74
2018-01-23T07:10:16.102Z,7.66
2018-01-23T07:12:44.417Z,7.69
2018-01-23T07:15:16.098Z,7.68
2018-01-23T07:17:44.705Z,7.72
2018-01-23T07:20:14.138Z,7.78
2018-01-23T07:22:42.413Z,7.83
2018-01-23T07:25:17.725Z,7.84
2018-01-23T07:27:46.006Z,7.76
2018-01-23T07:30:14.308Z,7.78
2018-01-23T07:32:42.576Z,7.75
2018-01-23T07:35:17.800Z,7.75
2018-01-23T07:37:46.154Z,7.74
2018-01-23T07:40:14.492Z,7.70
2018-01-23T07:42:42.733Z,7.67
2018-01-23T07:45:14.920Z,7.69
2018-01-23T07:47:43.228Z,7.70
2018-01-23T07:50:15.586Z,7.74
2018-01-23T07:52:43.883Z,7.69
2018-01-23T07:55:16.109Z,7.73
2018-01-23T07:57:44.556Z,7.68
2018-01-23T08:00:16.021Z,7.78
2018-01-23T08:02:44.278Z,7.72
2018-01-23T08:05:14.143Z,7.68
2018-01-23T08:07:42.408Z,7.65
2018-01-23T08:10:15.350Z,7.67
2018-01-23T08:12:43.640Z,7.66
2018-01-23T08:15:15.205Z,7.66
2018-01-23T08:17:43.485Z,7.71
2018-01-23T08:20:19.452Z,7.73
2018-01-23T08:22:47.745Z,7.67
2018-01-23T08:25:16.018Z,7.64
2018-01-23T08:27:44.341Z,7.67
2018-01-23T08:30:16.348Z,7.71
2018-01-23T08:32:44.636Z,7.65
2018-01-23T08:35:14.453Z,7.65
2018-01-23T08:37:43.693Z,7.72
2018-01-23T08:40:14.916Z,7.76
2018-01-23T08:42:43.204Z,7.85
2018-01-23T08:45:14.301Z,7.90
2018-01-23T08:47:42.741Z,7.85
2018-01-23T08:50:14.244Z,7.89
2018-01-23T08:52:42.517Z,7.88
2018-01-23T08:55:18.032Z,7.91
2018-01-23T08:57:47.043Z,8.00
2018-01-23T09:00:15.296Z,8.06
2018-01-23T09:02:43.861Z,8.02
2018-01-23T09:05:15.432Z,8.07
2018-01-23T09:07:43.708Z,8.13
2018-01-23T09:10:15.189Z,8.13
2018-01-23T09:12:43.474Z,8.18
2018-01-23T09:15:15.609Z,8.14
2018-01-23T09:17:44.027Z,8.14
2018-01-23T09:20:15.804Z,8.27
2018-01-23T09:22:44.268Z,8.25
2018-01-23T09:25:14.135Z,8.22
2018-01-23T09:27:42.472Z,8.17
2018-01-23T09:30:13.990Z,8.13
2018-01-23T09:32:42.265Z,8.09
2018-01-23T09:35:13.614Z,8.06
2018-01-23T09:37:41.896Z,8.07
2018-01-23T09:40:16.807Z,8.04
2018-01-23T09:42:45.076Z,8.04
2018-01-23T09:45:14.213Z,8.06
2018-01-23T09:47:43.206Z,8.08
2018-01-23T09:50:14.148Z,8.11
2018-01-23T09:52:42.712Z,8.18
2018-01-23T09:55:16.656Z,8.18
2018-01-23T09:57:44.948Z,8.20
2018-01-23T10:00:14.441Z,8.19
2018-01-23T10:02:42.710Z,8.17
2018-01-23T10:05:14.968Z,8.16
2018-01-23T10:07:43.415Z,8.16
2018-01-23T10:10:15.147Z,8.20
2018-01-23T10:12:43.411Z,8.23
2018-01-23T10:15:15.208Z,8.27
2018-01-23T10:17:43.484Z,8.28
2018-01-23T10:20:14.887Z,8.35
2018-01-23T10:22:43.167Z,8.45
2018-01-23T10:25:14.511Z,8.51
2018-01-23T10:27:42.784Z,8.57
2018-01-23T10:30:16.722Z,8.64
2018-01-23T10:32:45.729Z,8.79
2018-01-23T10:35:14.275Z,8.84
2018-01-23T10:37:42.566Z,8.82
2018-01-23T10:40:17.717Z,8.81
2018-01-23T10:42:45.999Z,8.95
2018-01-23T10:45:14.418Z,8.95
2018-01-23T10:47:42.916Z,8.98
2018-01-23T10:50:15.087Z,8.99
2018-01-23T10:52:43.664Z,8.98
2018-01-23T10:55:15.900Z,8.96
2018-01-23T10:57:44.222Z,8.83
2018-01-23T11:00:14.466Z,8.84
2018-01-23T11:02:42.753Z,8.82
2018-01-23T11:05:17.792Z,8.83
2018-01-23T11:07:46.072Z,8.83
2018-01-23T11:10:15.080Z,8.85
2018-01-23T11:12:43.361Z,8.88
2018-01-23T11:15:15.259Z,8.91
2018-01-23T11:17:44.681Z,8.93
2018-01-23T11:20:15.573Z,8.87
2018-01-23T11:22:43.849Z,8.92
2018-01-23T11:25:15.280Z,8.95
2018-01-23T11:27:44.056Z,8.95
2018-01-23T11:30:15.653Z,8.94
2018-01-23T11:32:44.440Z,9.02
2018-01-23T11:35:16.161Z,9.09
2018-01-23T11:37:44.456Z,9.09
2018-01-23T11:40:15.680Z,9.15
2018-01-23T11:42:43.961Z,9.15
2018-01-23T11:45:15.428Z,9.26
2018-01-23T11:47:43.981Z,9.19
2018-01-23T11:50:15.797Z,9.26
2018-01-23T11:52:44.087Z,9.32
2018-01-23T11:55:15.592Z,9.36
2018-01-23T11:57:43.950Z,9.45
2018-01-23T12:00:15.515Z,9.40
2018-01-23T12:02:43.828Z,9.36
2018-01-23T12:05:15.742Z,9.55
2018-01-23T12:07:44.758Z,9.62
2018-01-23T12:10:14.188Z,9.51
2018-01-23T12:12:42.498Z,9.46
2018-01-23T12:15:17.716Z,9.42
2018-01-23T12:17:46.009Z,9.42
2018-01-23T12:20:14.289Z,9.59
2018-01-23T12:22:42.573Z,9.53
2018-01-23T12:25:14.501Z,9.66
2018-01-23T12:27:43.046Z,9.64
2018-01-23T12:30:15.105Z,9.54
2018-01-23T12:32:43.632Z,9.54
2018-01-23T12:35:15.851Z,9.48
2018-01-23T12:37:44.127Z,9.53
2018-01-23T12:40:15.583Z,9.68
2018-01-23T12:42:43.866Z,9.54
2018-01-23T12:45:15.405Z,9.57
2018-01-23T12:47:43.700Z,9.66
2018-01-23T12:50:15.737Z,9.52
2018-01-23T12:52:44.136Z,9.53
2018-01-23T12:55:14.348Z,9.63
2018-01-23T12:57:42.632Z,9.64
2018-01-23T13:00:15.024Z,9.75
2018-01-23T13:02:43.721Z,9.68
2018-01-23T13:05:14.893Z,9.67
2018-01-23T13:07:43.187Z,9.63
2018-01-23T13:10:15.342Z,9.74
2018-01-23T13:12:43.681Z,9.79
2018-01-23T13:15:15.688Z,9.88
2018-01-23T13:17:43.980Z,9.85
2018-01-23T13:20:15.937Z,10.05
2018-01-23T13:22:44.731Z,10.01
2018-01-23T13:25:14.524Z,9.93
2018-01-23T13:27:42.809Z,9.89
2018-01-23T13:30:14.923Z,9.91
2018-01-23T13:32:43.238Z,9.79
2018-01-23T13:35:14.444Z,9.80
2018-01-23T13:37:42.730Z,9.80
2018-01-23T13:40:14.945Z,9.80
2018-01-23T13:42:43.368Z,9.89
2018-01-23T13:45:14.680Z,10.40
2018-01-23T13:47:43.132Z,10.22
2018-01-23T13:50:15.160Z,10.19
2018-01-23T13:52:43.477Z,10.07
2018-01-23T13:55:15.603Z,10.13
2018-01-23T13:57:43.877Z,10.86
2018-01-23T14:00:15.465Z,10.74
2018-01-23T14:02:43.889Z,10.95
2018-01-23T14:05:16.441Z,10.36
2018-01-23T14:07:44.990Z,10.57
2018-01-23T14:10:14.814Z,10.21
2018-01-23T14:12:43.108Z,10.34
2018-01-23T14:15:15.053Z,10.43
2018-01-23T14:17:43.357Z,10.47
2018-01-23T14:20:15.163Z,10.46
2018-01-23T14:22:43.472Z,10.51
2018-01-23T14:25:14.448Z,10.32
2018-01-23T14:27:42.740Z,10.21
2018-01-23T14:30:14.022Z,10.14
2018-01-23T14:32:42.333Z,10.10
2018-01-23T14:35:14.800Z,10.13
2018-01-23T14:37:43.372Z,10.11
2018-01-23T14:40:13.343Z,10.26
2018-01-23T14:42:41.901Z,10.21
2018-01-23T14:45:14.053Z,10.14
2018-01-23T14:47:42.311Z,10.29
2018-01-23T14:50:14.196Z,10.19
2018-01-23T14:52:43.293Z,10.28
2018-01-23T14:55:14.483Z,10.17
2018-01-23T14:57:42.811Z,10.09
2018-01-23T15:00:13.976Z,10.06
2018-01-23T15:02:42.303Z,10.07
2018-01-23T15:05:14.456Z,10.10
2018-01-23T15:07:42.733Z,10.04
2018-01-23T15:10:14.098Z,10.02
2018-01-23T15:12:42.374Z,10.00
2018-01-23T15:15:14.548Z,10.00
2018-01-23T15:17:42.821Z,9.96
2018-01-23T15:20:15.065Z,10.04
2018-01-23T15:22:43.370Z,9.98
2018-01-23T15:25:15.802Z,9.98
2018-01-23T15:27:44.298Z,9.98
2018-01-23T15:30:13.794Z,9.97
2018-01-23T15:32:42.913Z,9.95
2018-01-23T15:35:14.449Z,9.92
2018-01-23T15:37:42.740Z,9.95
2018-01-23T15:40:14.016Z,9.94
2018-01-23T15:42:42.299Z,9.93
2018-01-23T15:45:13.528Z,9.89
2018-01-23T15:47:42.118Z,9.98
2018-01-23T15:50:14.228Z,9.95
2018-01-23T15:52:42.690Z,9.92
2018-01-23T15:55:14.497Z,9.94
2018-01-23T15:57:42.840Z,9.97
2018-01-23T16:00:14.166Z,9.98
2018-01-23T16:02:42.463Z,9.97
2018-01-23T16:05:14.596Z,9.97
2018-01-23T16:07:42.859Z,9.96
2018-01-23T16:10:14.373Z,9.98
2018-01-23T16:12:42.653Z,10.00
2018-01-23T16:15:14.057Z,10.00
2018-01-23T16:17:42.402Z,10.02
2018-01-23T16:20:14.383Z,10.02
2018-01-23T16:22:42.664Z,10.03
2018-01-23T16:25:14.630Z,10.08
2018-01-23T16:27:42.943Z,10.08
2018-01-23T16:30:14.921Z,10.09
2018-01-23T16:32:43.220Z,10.05
2018-01-23T16:35:15.078Z,10.03
2018-01-23T16:37:43.445Z,10.05
2018-01-23T16:40:14.764Z,10.01
2018-01-23T16:42:43.480Z,9.93
2018-01-23T16:45:13.327Z,9.93
2018-01-23T16:47:41.640Z,9.92
2018-01-23T16:50:13.078Z,9.97
2018-01-23T16:52:41.500Z,9.94
2018-01-23T16:55:13.364Z,9.91
2018-01-23T16:57:42.241Z,9.89
2018-01-23T17:00:13.430Z,9.90
2018-01-23T17:02:41.741Z,9.90
2018-01-23T17:05:13.592Z,9.89
2018-01-23T17:07:42.141Z,9.82
2018-01-23T17:10:14.389Z,9.85
2018-01-23T17:12:43.580Z,9.79
2018-01-23T17:15:14.808Z,9.82
2018-01-23T17:17:43.526Z,9.81
2018-01-23T17:20:14.227Z,9.89
2018-01-23T17:22:42.692Z,9.88
2018-01-23T17:25:14.833Z,9.88
2018-01-23T17:27:43.099Z,9.90
2018-01-23T17:30:14.452Z,9.94
2018-01-23T17:32:42.752Z,9.93
2018-01-23T17:35:14.879Z,9.91
2018-01-23T17:37:43.328Z,9.92
2018-01-23T17:40:15.289Z,9.95
2018-01-23T17:42:43.604Z,9.90
2018-01-23T17:45:13.808Z,9.95
2018-01-23T17:47:42.132Z,9.95
2018-01-23T17:50:13.536Z,9.97
2018-01-23T17:52:41.832Z,9.97
2018-01-23T17:55:17.396Z,10.00
2018-01-23T17:57:45.748Z,9.93
2018-01-23T18:00:14.028Z,9.95
2018-01-23T18:02:42.824Z,9.96
2018-01-23T18:05:14.224Z,10.03
2018-01-23T18:07:42.617Z,9.96
2018-01-23T18:10:14.794Z,10.00
2018-01-23T18:12:43.111Z,10.10
2018-01-23T18:15:15.183Z,10.10
2018-01-23T18:17:43.499Z,10.13
2018-01-23T18:20:13.401Z,10.12
2018-01-23T18:22:41.702Z,10.04
2018-01-23T18:25:13.252Z,10.02
2018-01-23T18:27:41.566Z,10.02
2018-01-23T18:30:13.219Z,10.07
2018-01-23T18:32:41.740Z,9.99
2018-01-23T18:35:13.494Z,10.06
2018-01-23T18:37:41.801Z,10.12
2018-01-23T18:40:13.424Z,10.05
2018-01-23T18:42:41.783Z,9.95
2018-01-23T18:45:20.819Z,10.05
2018-01-23T18:47:49.293Z,10.03
2018-01-23T18:50:17.593Z,10.05
2018-01-23T18:52:45.917Z,10.00
2018-01-23T18:55:14.232Z,10.03
2018-01-23T18:57:42.705Z,10.03
2018-01-23T19:00:14.841Z,10.11
2018-01-23T19:02:43.166Z,10.05
2018-01-23T19:05:15.069Z,9.96
2018-01-23T19:07:43.384Z,9.96
2018-01-23T19:10:15.419Z,9.97
2018-01-23T19:12:44.230Z,9.92
2018-01-23T19:15:13.865Z,9.98
2018-01-23T19:17:42.132Z,9.99
2018-01-23T19:20:16.086Z,9.99
2018-01-23T19:22:44.368Z,9.99
2018-01-23T19:25:13.769Z,10.01
2018-01-23T19:27:42.049Z,10.04
2018-01-23T19:30:14.081Z,9.92
2018-01-23T19:32:42.493Z,10.03
2018-01-23T19:35:14.413Z,10.04
2018-01-23T19:37:42.730Z,9.99
2018-01-23T19:40:14.421Z,9.97
2018-01-23T19:42:42.746Z,9.97
2018-01-23T19:45:14.373Z,9.97
2018-01-23T19:47:42.672Z,9.98
2018-01-23T19:50:14.227Z,10.01
2018-01-23T19:52:42.734Z,10.05
2018-01-23T19:55:15.286Z,10.04
2018-01-23T19:57:43.584Z,10.07
2018-01-23T20:00:13.445Z,10.05
2018-01-23T20:02:41.751Z,10.03
2018-01-23T20:05:17.007Z,10.04
2018-01-23T20:07:45.303Z,10.07
2018-01-23T20:10:14.383Z,10.05
2018-01-23T20:12:42.704Z,10.10
2018-01-23T20:15:14.323Z,10.06
2018-01-23T20:17:42.767Z,10.14
2018-01-23T20:20:14.884Z,10.06
2018-01-23T20:22:43.173Z,10.07
2018-01-23T20:25:14.989Z,10.06
2018-01-23T20:27:43.325Z,10.10
2018-01-23T20:30:15.737Z,10.08
2018-01-23T20:32:44.013Z,10.12
2018-01-23T20:35:13.803Z,10.13
2018-01-23T20:37:42.364Z,10.12
2018-01-23T20:40:14.272Z,10.14
2018-01-23T20:42:42.542Z,10.13
2018-01-23T20:45:14.722Z,10.16
2018-01-23T20:47:43.014Z,10.14
2018-01-23T20:50:15.064Z,10.13
2018-01-23T20:52:43.346Z,10.14
2018-01-23T20:55:15.894Z,10.16
2018-01-23T20:57:44.142Z,10.17
2018-01-23T21:00:13.987Z,10.19
2018-01-23T21:02:42.288Z,10.17
2018-01-23T21:05:14.329Z,10.17
2018-01-23T21:07:42.651Z,10.17
2018-01-23T21:10:13.434Z,10.21
2018-01-23T21:12:41.716Z,10.30
2018-01-23T21:15:13.239Z,10.39
2018-01-23T21:17:41.748Z,10.31
2018-01-23T21:20:17.122Z,10.33
2018-01-23T21:22:45.449Z,10.30
2018-01-23T21:25:13.724Z,10.29
2018-01-23T21:27:42.497Z,10.28
2018-01-23T21:30:14.381Z,10.29
2018-01-23T21:32:42.676Z,10.26
2018-01-23T21:35:14.182Z,10.29
2018-01-23T21:37:43.412Z,10.26
2018-01-23T21:40:13.630Z,10.29
2018-01-23T21:42:41.876Z,10.23
2018-01-23T21:45:13.341Z,10.33
2018-01-23T21:47:41.613Z,10.18
2018-01-23T21:50:16.847Z,10.29
2018-01-23T21:52:45.199Z,10.29
2018-01-23T21:55:13.564Z,10.30
2018-01-23T21:57:42.030Z,10.37
2018-01-23T22:00:16.096Z,10.40
2018-01-23T22:02:44.388Z,10.42
2018-01-23T22:05:13.824Z,10.40
2018-01-23T22:07:42.093Z,10.40
2018-01-23T22:10:16.149Z,10.43
2018-01-23T22:12:44.692Z,10.48
2018-01-23T22:15:13.909Z,10.44
2018-01-23T22:17:42.264Z,10.44
2018-01-23T22:20:14.721Z,10.47
2018-01-23T22:22:43.029Z,10.50
2018-01-23T22:25:14.959Z,10.51
2018-01-23T22:27:43.247Z,10.52
2018-01-23T22:30:15.377Z,10.51
2018-01-23T22:32:43.672Z,10.52
2018-01-23T22:35:15.335Z,10.58
2018-01-23T22:37:43.644Z,10.55
2018-01-23T22:40:15.364Z,10.55
2018-01-23T22:42:43.676Z,10.60
2018-01-23T22:45:13.582Z,10.60
2018-01-23T22:47:41.883Z,10.60
2018-01-23T22:50:13.287Z,10.62
2018-01-23T22:52:41.584Z,10.66
2018-01-23T22:55:12.979Z,10.65
2018-01-23T22:57:41.276Z,10.66
2018-01-23T23:00:16.110Z,10.69
2018-01-23T23:02:44.390Z,10.70
2018-01-23T23:05:14.011Z,10.71
2018-01-23T23:07:43.278Z,10.70
2018-01-23T23:10:14.565Z,10.70
2018-01-23T23:12:42.832Z,10.71
2018-01-23T23:15:14.367Z,10.70
2018-01-23T23:17:42.659Z,10.72
2018-01-23T23:20:14.955Z,10.74
2018-01-23T23:22:43.430Z,10.71
2018-01-23T23:25:14.720Z,10.74
2018-01-23T23:27:42.998Z,10.74
2018-01-23T23:30:14.430Z,10.77
2018-01-23T23:32:42.725Z,10.77
2018-01-23T23:35:13.462Z,10.80
2018-01-23T23:37:41.801Z,10.83
2018-01-23T23:40:13.396Z,10.85
2018-01-23T23:42:41.700Z,10.90
2018-01-23T23:45:15.498Z,10.79
2018-01-23T23:47:43.928Z,10.73
2018-01-23T23:50:15.140Z,10.73
2018-01-23T23:52:43.454Z,10.77
2018-01-23T23:55:13.542Z,10.78
2018-01-23T23:57:41.845Z,10.78
